Time;durP1;ratioP1;P1;durP2;ratioP2;P2;SDS_P1;SDS_P2;PMS_P1;PMS_P2;Temp;Humidity;BMP_temperature;BMP_pressure;BME280_temperature;BME280_humidity;BME280_pressure;Samples;Min_cycle;Max_cycle;Signal;HPM_P1;HPM_P2
2021/03/21 00:00:29;;;;;;;24.63;12.13;;;;;;;-2.61;56.63;100280.08;124711;1106;103300;-79
2021/03/21 00:03:14;;;;;;;24.17;12.93;;;;;;;-2.59;56.15;100275.00;124586;1106;104296;-79
2021/03/21 00:05:42;;;;;;;22.47;11.80;;;;;;;-2.59;56.86;100280.97;124532;1108;104178;-78
2021/03/21 00:08:19;;;;;;;28.10;13.50;;;;;;;-2.58;56.84;100275.03;124535;1106;104178;-79
2021/03/21 00:10:51;;;;;;;23.97;13.40;;;;;;;-2.57;56.45;100276.76;124701;1105;104117;-81
2021/03/21 00:13:20;;;;;;;28.83;13.20;;;;;;;-2.54;56.87;100268.30;124477;1106;104149;-79
2021/03/21 00:15:48;;;;;;;23.60;12.57;;;;;;;-2.52;56.59;100259.83;124569;1105;104133;-79
2021/03/21 00:18:18;;;;;;;26.10;12.80;;;;;;;-2.50;56.49;100250.54;124610;1105;104210;-79
2021/03/21 00:20:46;;;;;;;29.23;12.50;;;;;;;-2.49;56.75;100252.27;124509;1109;104290;-78
2021/03/21 00:23:15;;;;;;;27.87;13.17;;;;;;;-2.48;56.70;100237.80;124515;1109;104303;-80
2021/03/21 00:25:43;;;;;;;26.43;12.60;;;;;;;-2.48;56.37;100235.24;124527;1109;104188;-80
2021/03/21 00:28:13;;;;;;;24.30;12.73;;;;;;;-2.47;57.12;100237.83;124542;1105;104144;-79
2021/03/21 00:30:43;;;;;;;26.00;12.13;;;;;;;-2.45;56.62;100238.72;124568;1105;104159;-79
2021/03/21 00:33:14;;;;;;;23.80;11.27;;;;;;;-2.44;57.07;100230.22;124564;1105;104183;-78
2021/03/21 00:35:42;;;;;;;25.80;12.83;;;;;;;-2.47;56.58;100225.05;124546;1105;104210;-79
2021/03/21 00:38:18;;;;;;;28.60;12.95;;;;;;;-2.47;56.73;100214.84;124541;1109;104143;-79
2021/03/21 00:40:45;;;;;;;20.73;11.73;;;;;;;-2.50;56.93;100199.47;124566;1106;104165;-78
2021/03/21 00:43:12;;;;;;;22.60;11.70;;;;;;;-2.52;56.68;100195.99;124522;1105;104678;-79
2021/03/21 00:45:40;;;;;;;22.45;11.78;;;;;;;-2.52;56.47;100195.99;124483;1109;104190;-79
2021/03/21 00:48:15;;;;;;;23.97;12.20;;;;;;;-2.53;57.42;100195.97;124481;1109;104280;-78
2021/03/21 00:50:43;;;;;;;28.83;12.63;;;;;;;-2.55;57.32;100193.38;124522;1109;104069;-79
2021/03/21 00:53:10;;;;;;;28.67;13.33;;;;;;;-2.56;57.01;100184.00;124554;1109;104501;-80
2021/03/21 00:55:37;;;;;;;24.97;12.63;;;;;;;-2.56;57.53;100181.45;124572;1105;104229;-79
2021/03/21 00:58:09;;;;;;;25.17;11.47;;;;;;;-2.58;56.92;100179.70;124545;1105;104134;-79
2021/03/21 01:00:43;;;;;;;24.45;12.25;;;;;;;-2.62;57.52;100163.47;124503;1105;104163;-79
2021/03/21 01:03:11;;;;;;;25.10;12.03;;;;;;;-2.62;57.11;100171.12;124555;1105;104162;-79
2021/03/21 01:05:44;;;;;;;22.53;11.90;;;;;;;-2.62;57.77;100157.50;124560;1106;104118;-79
2021/03/21 01:08:36;;;;;;;26.43;12.90;;;;;;;-2.62;58.19;100166.02;124528;1106;102032;-79
2021/03/21 01:11:24;;;;;;;24.97;12.53;;;;;;;-2.62;58.09;100145.59;124568;1105;104207;-79
2021/03/21 01:13:52;;;;;;;22.43;12.30;;;;;;;-2.63;57.66;100136.22;124454;1105;104287;-79
2021/03/21 01:16:22;;;;;;;20.00;10.43;;;;;;;-2.61;57.80;100123.48;124525;1109;104178;-80
2021/03/21 01:18:51;;;;;;;22.70;11.60;;;;;;;-2.63;57.98;100114.94;124578;1105;104105;-79
2021/03/21 01:21:20;;;;;;;22.50;11.90;;;;;;;-2.64;58.15;100119.18;124576;1109;104169;-79
2021/03/21 01:23:47;;;;;;;23.60;11.53;;;;;;;-2.62;57.87;100111.55;124607;1106;104665;-79
2021/03/21 01:26:18;;;;;;;22.43;11.10;;;;;;;-2.62;57.76;100112.41;124569;1105;104178;-80
2021/03/21 01:28:46;;;;;;;22.63;11.50;;;;;;;-2.61;58.05;100092.84;124522;1106;104245;-79
2021/03/21 01:31:20;;;;;;;20.83;11.80;;;;;;;-2.61;57.89;100083.48;124569;1105;103976;-79
2021/03/21 01:33:48;;;;;;;20.67;10.97;;;;;;;-2.61;57.76;100077.52;124609;1106;104197;-79
2021/03/21 01:36:27;;;;;;;22.93;11.97;;;;;;;-2.61;57.72;100086.05;124616;1106;104230;-80
2021/03/21 01:38:57;;;;;;;22.17;10.83;;;;;;;-2.60;58.30;100074.99;124524;1109;104360;-79
2021/03/21 01:41:34;;;;;;;22.00;11.03;;;;;;;-2.63;58.09;100063.87;124637;1105;104118;-79
2021/03/21 01:44:05;;;;;;;18.90;10.45;;;;;;;-2.67;58.70;100057.86;124508;1109;104165;-79
2021/03/21 01:46:35;;;;;;;24.73;12.10;;;;;;;-2.67;58.85;100047.65;124580;1107;104165;-79
2021/03/21 01:49:14;;;;;;;17.35;9.90;;;;;;;-2.66;57.78;100046.81;124642;1105;104133;-80
2021/03/21 01:51:41;;;;;;;18.40;10.83;;;;;;;-2.67;58.59;100037.44;124521;1109;104210;-80
2021/03/21 01:54:12;;;;;;;21.83;11.70;;;;;;;-2.69;57.91;100038.22;124580;1106;104197;-78
2021/03/21 01:56:40;;;;;;;21.30;10.30;;;;;;;-2.69;58.23;100028.00;124554;1106;104175;-79
2021/03/21 01:59:16;;;;;;;20.87;10.77;;;;;;;-2.69;58.48;100021.23;124542;1109;104131;-80
2021/03/21 02:01:44;;;;;;;20.10;10.23;;;;;;;-2.71;58.14;100024.56;124543;1106;104983;-79
2021/03/21 02:04:12;;;;;;;21.47;10.97;;;;;;;-2.72;58.02;100023.70;124501;1109;104236;-79
2021/03/21 02:06:56;;;;;;;19.50;10.63;;;;;;;-2.72;58.74;100022.85;124522;1106;104226;-79
2021/03/21 02:10:08;;;;;;;23.57;12.00;;;;;;;-2.71;58.44;100012.67;124580;1105;104226;-79
2021/03/21 02:13:10;;;;;;;18.60;10.10;;;;;;;-2.71;58.50;100025.42;124542;1109;104101;-79
2021/03/21 02:16:00;;;;;;;22.23;10.47;;;;;;;-2.70;58.77;100005.86;124521;1105;104172;-79
2021/03/21 02:18:33;;;;;;;19.87;10.33;;;;;;;-2.72;58.60;99992.22;124571;1106;104133;-78
2021/03/21 02:21:19;;;;;;;19.30;9.57;;;;;;;-2.73;59.45;99983.70;124773;1105;104129;-79
2021/03/21 02:24:24;;;;;;;22.45;10.05;;;;;;;-2.71;59.43;99976.07;124717;1105;104563;-79
2021/03/21 02:27:05;;;;;;;17.00;9.30;;;;;;;-2.71;59.48;99966.72;124549;1106;104238;-79
2021/03/21 02:29:48;;;;;;;17.67;9.27;;;;;;;-2.69;60.00;99962.53;124553;1105;103145;-79
2021/03/21 02:32:27;;;;;;;19.73;9.53;;;;;;;-2.68;59.36;99961.69;124530;1106;104162;-78
2021/03/21 02:35:19;;;;;;;19.13;9.37;;;;;;;-2.66;58.80;99960.02;124522;1105;103328;-78
2021/03/21 02:37:58;;;;;;;18.00;9.50;;;;;;;-2.62;59.21;99945.60;124744;1105;104123;-79
2021/03/21 02:40:34;;;;;;;17.40;9.90;;;;;;;-2.59;59.32;99937.98;124514;1105;104131;-79
2021/03/21 02:43:19;;;;;;;16.97;8.48;;;;;;;-2.57;59.39;99929.52;124778;1106;104211;-79
2021/03/21 02:45:50;;;;;;;16.43;8.80;;;;;;;-2.54;59.58;99946.57;124485;1109;104182;-79
2021/03/21 02:48:36;;;;;;;22.23;10.10;;;;;;;-2.52;59.20;99909.15;124570;1105;104191;-79
2021/03/21 02:51:15;;;;;;;16.47;9.27;;;;;;;-2.50;59.39;99902.40;124553;1105;104149;-78
2021/03/21 02:53:49;;;;;;;18.30;9.50;;;;;;;-2.50;60.07;99910.92;124547;1105;104178;-79
2021/03/21 02:56:24;;;;;;;21.13;9.70;;;;;;;-2.48;59.21;99901.58;124574;1105;104169;-79
2021/03/21 02:59:08;;;;;;;20.43;9.70;;;;;;;-2.48;59.16;99901.58;124549;1105;104024;-79
2021/03/21 03:01:39;;;;;;;18.97;9.17;;;;;;;-2.46;59.40;99902.45;124609;1105;104155;-80
2021/03/21 03:04:10;;;;;;;14.80;8.67;;;;;;;-2.44;59.87;99893.12;124598;1105;104217;-79
2021/03/21 03:07:00;;;;;;;14.30;7.70;;;;;;;-2.41;59.97;99888.89;124603;1109;104296;-78
2021/03/21 03:09:46;;;;;;;14.83;8.23;;;;;;;-2.42;59.38;99872.71;124767;1105;104284;-78
2021/03/21 03:12:26;;;;;;;19.53;9.03;;;;;;;-2.38;59.51;99884.67;124737;1105;104281;-78
2021/03/21 03:14:54;;;;;;;15.93;8.87;;;;;;;-2.37;59.37;99873.63;124578;1109;103986;-79
2021/03/21 03:17:37;;;;;;;13.43;8.03;;;;;;;-2.36;60.19;99870.23;124508;1109;104274;-78
2021/03/21 03:20:15;;;;;;;16.95;9.10;;;;;;;-2.31;59.51;99876.28;124577;1106;104176;-78
2021/03/21 03:22:58;;;;;;;15.17;8.23;;;;;;;-2.29;59.54;99863.53;124579;1105;104162;-79
2021/03/21 03:25:36;;;;;;;14.87;7.97;;;;;;;-2.30;59.57;99854.16;124501;1108;104290;-79
2021/03/21 03:28:39;;;;;;;15.00;8.70;;;;;;;-2.31;59.34;99843.08;124556;1106;104165;-79
2021/03/21 03:31:13;;;;;;;18.33;9.47;;;;;;;-2.29;60.05;99848.20;124429;1109;104175;-78
2021/03/21 03:33:41;;;;;;;15.73;8.40;;;;;;;-2.27;59.59;99833.75;124277;1112;104226;-79
2021/03/21 03:36:12;;;;;;;16.47;8.57;;;;;;;-2.24;60.04;99833.78;124231;1109;103030;-79
2021/03/21 03:38:43;;;;;;;14.43;8.13;;;;;;;-2.23;59.78;99821.03;124398;1109;104418;-80
2021/03/21 03:41:18;;;;;;;15.80;8.37;;;;;;;-2.21;59.43;99808.27;124249;1109;104190;-80
2021/03/21 03:44:09;;;;;;;16.10;8.30;;;;;;;-2.20;60.07;99821.06;124269;1109;104271;-79
2021/03/21 03:46:43;;;;;;;14.97;7.80;;;;;;;-2.19;60.15;99806.59;124521;1109;103116;-79
2021/03/21 03:49:28;;;;;;;18.43;9.10;;;;;;;-2.19;60.26;99794.67;124308;1109;104306;-79
2021/03/21 03:52:06;;;;;;;13.63;7.90;;;;;;;-2.16;59.83;99809.17;124213;1109;104255;-78
2021/03/21 03:54:56;;;;;;;15.87;8.40;;;;;;;-2.20;59.59;99792.11;124234;1112;104357;-77
2021/03/21 03:57:38;;;;;;;17.50;9.83;;;;;;;-2.18;60.35;99792.98;124014;1112;103327;-79
2021/03/21 04:00:14;;;;;;;15.80;8.20;;;;;;;-2.17;59.96;99789.58;124146;1112;105636;-79
2021/03/21 04:02:56;;;;;;;16.63;9.30;;;;;;;-2.16;60.69;99781.08;124160;1111;101993;-78
2021/03/21 04:05:31;;;;;;;17.37;9.47;;;;;;;-2.14;59.87;99775.17;123901;1112;104133;-79
2021/03/21 04:08:20;;;;;;;18.23;8.83;;;;;;;-2.10;60.38;99778.61;124391;1109;104153;-79
2021/03/21 04:10:55;;;;;;;14.03;8.30;;;;;;;-2.10;59.78;99773.50;124220;1112;104040;-78
2021/03/21 04:13:54;;;;;;;17.10;8.40;;;;;;;-2.09;60.79;99754.77;124243;1109;104121;-78
2021/03/21 04:16:31;;;;;;;14.50;8.77;;;;;;;-2.09;60.47;99754.77;124313;1109;102528;-79
2021/03/21 04:19:08;;;;;;;15.00;8.30;;;;;;;-2.08;60.49;99751.38;124183;1112;104312;-78
2021/03/21 04:21:39;;;;;;;18.70;9.37;;;;;;;-2.06;60.39;99751.39;124272;1109;104235;-79
2021/03/21 04:24:12;;;;;;;13.77;7.93;;;;;;;-2.06;60.73;99743.73;124264;1109;104290;-79
2021/03/21 04:26:49;;;;;;;14.37;8.43;;;;;;;-2.06;60.54;99738.61;124260;1109;104274;-80
2021/03/21 04:29:24;;;;;;;15.63;8.63;;;;;;;-2.06;60.58;99747.14;124254;1112;104169;-79
2021/03/21 04:31:56;;;;;;;13.63;7.50;;;;;;;-2.07;60.85;99726.68;124197;1109;104136;-78
2021/03/21 04:34:26;;;;;;;19.50;8.87;;;;;;;-2.04;60.02;99740.34;124299;1109;104155;-78
2021/03/21 04:36:56;;;;;;;15.37;8.67;;;;;;;-2.03;60.21;99743.75;124521;1107;104114;-78
2021/03/21 04:39:30;;;;;;;14.90;8.13;;;;;;;-2.02;60.21;99728.44;124534;1109;104172;-79
2021/03/21 04:42:27;;;;;;;14.40;8.07;;;;;;;-1.99;60.17;99730.16;124570;1109;104270;-79
2021/03/21 04:45:12;;;;;;;11.50;6.75;;;;;;;-1.97;59.98;99731.06;124534;1105;104081;-79
2021/03/21 04:47:57;;;;;;;15.17;8.20;;;;;;;-1.97;60.74;99715.73;124538;1106;104145;-79
2021/03/21 04:50:25;;;;;;;14.77;7.43;;;;;;;-1.97;60.02;99721.69;124521;1105;104162;-79
2021/03/21 04:53:05;;;;;;;13.50;7.60;;;;;;;-1.96;60.44;99712.33;124598;1109;104140;-79
2021/03/21 04:55:39;;;;;;;14.43;7.57;;;;;;;-1.97;60.21;99721.69;124634;1106;104111;-79
2021/03/21 04:58:15;;;;;;;15.07;7.20;;;;;;;-1.97;60.01;99703.80;124503;1105;103938;-79
2021/03/21 05:00:47;;;;;;;17.40;8.30;;;;;;;-1.96;60.32;99714.88;124465;1109;104140;-79
2021/03/21 05:03:26;;;;;;;14.20;7.70;;;;;;;-1.95;60.49;99709.78;124596;1105;104115;-78
2021/03/21 05:06:02;;;;;;;16.65;8.15;;;;;;;-1.92;59.98;99703.84;124574;1105;104655;-79
2021/03/21 05:08:38;;;;;;;15.07;7.43;;;;;;;-1.90;60.41;99700.45;124546;1105;104534;-80
2021/03/21 05:11:07;;;;;;;20.40;9.00;;;;;;;-1.92;60.08;99697.03;124550;1108;104104;-79
2021/03/21 05:13:55;;;;;;;15.13;8.23;;;;;;;-1.87;59.91;99692.80;124709;1105;104018;-78
2021/03/21 05:16:58;;;;;;;14.37;8.30;;;;;;;-1.83;60.68;99689.42;124566;1109;104089;-79
2021/03/21 05:19:36;;;;;;;16.07;7.93;;;;;;;-1.78;60.29;99688.63;124457;1109;104348;-78
2021/03/21 05:22:14;;;;;;;14.67;8.33;;;;;;;-1.75;60.41;99696.32;124411;1109;104227;-78
2021/03/21 05:24:53;;;;;;;16.77;8.30;;;;;;;-1.75;60.13;99683.55;124325;1109;104184;-78
2021/03/21 05:27:33;;;;;;;12.27;7.57;;;;;;;-1.74;60.35;99683.55;124263;1109;104198;-80
2021/03/21 05:30:13;;;;;;;14.40;8.17;;;;;;;-1.73;59.32;99680.15;124519;1109;104216;-79
2021/03/21 05:32:41;;;;;;;13.70;7.53;;;;;;;-1.71;59.51;99677.60;124426;1109;104236;-78
2021/03/21 05:35:37;;;;;;;13.93;6.77;;;;;;;-1.69;59.89;99668.23;124489;1109;103417;-79
2021/03/21 05:38:22;;;;;;;13.70;7.60;;;;;;;-1.63;59.68;99663.16;124225;1109;104354;-79
2021/03/21 05:41:07;;;;;;;13.93;7.47;;;;;;;-1.60;59.18;99660.66;124481;1109;104153;-79
2021/03/21 05:44:02;;;;;;;15.27;7.30;;;;;;;-1.58;59.62;99664.94;124326;1109;104401;-79
2021/03/21 05:46:37;;;;;;;15.05;7.80;;;;;;;-1.59;59.29;99662.36;124494;1109;104173;-79
2021/03/21 05:49:20;;;;;;;15.28;7.50;;;;;;;-1.57;59.25;99653.00;124483;1109;104124;-80
2021/03/21 05:52:11;;;;;;;17.30;7.80;;;;;;;-1.56;59.34;99649.59;124256;1109;104322;-78
2021/03/21 05:54:53;;;;;;;14.27;7.43;;;;;;;-1.51;58.69;99676.05;124716;1105;102850;-79
2021/03/21 05:57:47;;;;;;;13.97;7.20;;;;;;;-1.52;59.42;99647.06;124556;1106;104159;-78
2021/03/21 06:00:34;;;;;;;14.70;7.50;;;;;;;-1.50;58.69;99653.89;124587;1105;104261;-78
2021/03/21 06:03:13;;;;;;;13.95;7.33;;;;;;;-1.50;58.66;99644.52;124766;1105;104176;-77
2021/03/21 06:06:11;;;;;;;13.73;7.60;;;;;;;-1.51;59.23;99614.67;124542;1105;104236;-78
2021/03/21 06:08:41;;;;;;;13.50;7.60;;;;;;;-1.49;58.90;99628.32;124684;1105;103944;-79
2021/03/21 06:11:52;;;;;;;15.07;7.53;;;;;;;-1.48;59.19;99624.91;124702;1105;104143;-79
2021/03/21 06:14:22;;;;;;;13.73;7.77;;;;;;;-1.43;59.02;99632.64;124581;1106;104194;-79
2021/03/21 06:16:59;;;;;;;14.47;8.17;;;;;;;-1.40;58.78;99620.72;124732;1105;104213;-78
2021/03/21 06:20:09;;;;;;;14.33;7.97;;;;;;;-1.37;58.73;99612.20;124531;1105;104555;-78
2021/03/21 06:22:59;;;;;;;17.03;7.93;;;;;;;-1.35;58.71;99608.80;124555;1105;104210;-79
2021/03/21 06:25:54;;;;;;;14.00;7.70;;;;;;;-1.33;59.27;99604.55;124736;1105;104078;-79
2021/03/21 06:28:33;;;;;;;15.50;7.80;;;;;;;-1.32;58.82;99598.58;124569;1105;104217;-78
2021/03/21 06:31:27;;;;;;;13.80;7.73;;;;;;;-1.32;58.71;99590.91;124567;1105;104186;-79
2021/03/21 06:34:23;;;;;;;18.47;9.27;;;;;;;-1.28;59.31;99595.19;124205;1109;105906;-79
2021/03/21 06:37:00;;;;;;;18.10;8.40;;;;;;;-1.26;59.42;99584.95;124185;1108;104209;-80
2021/03/21 06:39:33;;;;;;;15.77;7.90;;;;;;;-1.23;59.15;99587.56;124181;1109;104248;-79
2021/03/21 06:42:29;;;;;;;15.30;8.87;;;;;;;-1.20;58.69;99579.89;124314;1108;102341;-79
2021/03/21 06:45:18;;;;;;;15.90;8.60;;;;;;;-1.13;59.57;99585.88;124200;1109;104146;-79
2021/03/21 06:48:04;;;;;;;19.37;9.93;;;;;;;-1.08;59.91;99574.80;124194;1109;104117;-79
2021/03/21 06:50:48;;;;;;;16.10;9.83;;;;;;;-1.04;59.63;99566.31;124215;1109;104182;-79
2021/03/21 06:53:40;;;;;;;17.97;9.30;;;;;;;-0.97;59.94;99565.47;124183;1109;104499;-79
2021/03/21 06:56:26;;;;;;;14.73;9.20;;;;;;;-0.90;59.83;99571.45;124255;1109;104357;-79
2021/03/21 06:59:13;;;;;;;18.07;9.07;;;;;;;-0.80;59.40;99574.91;124154;1109;104127;-78
2021/03/21 07:02:12;;;;;;;17.63;10.03;;;;;;;-0.76;59.88;99562.11;124155;1109;104265;-79
2021/03/21 07:04:54;;;;;;;17.83;10.73;;;;;;;-0.76;60.78;99553.58;124167;1109;104114;-79
2021/03/21 07:07:39;;;;;;;19.47;10.20;;;;;;;-0.79;59.81;99562.11;124159;1109;104115;-79
2021/03/21 07:10:50;;;;;;;20.23;10.23;;;;;;;-0.79;60.61;99561.26;124199;1109;104210;-78
2021/03/21 07:13:46;;;;;;;19.10;9.70;;;;;;;-0.84;61.16;99568.94;124477;1106;104283;-78
2021/03/21 07:16:52;;;;;;;19.97;10.70;;;;;;;-0.79;60.70;99562.11;124445;1105;104565;-79
2021/03/21 07:19:38;;;;;;;17.77;10.30;;;;;;;-0.74;61.19;99565.53;124595;1105;104211;-79
2021/03/21 07:22:20;;;;;;;18.93;10.10;;;;;;;-0.75;62.07;99545.89;124752;1105;104181;-79
2021/03/21 07:25:05;;;;;;;18.00;10.60;;;;;;;-0.77;61.43;99550.16;124542;1105;102241;-79
2021/03/21 07:27:50;;;;;;;17.27;11.33;;;;;;;-0.77;62.38;99550.16;124575;1105;104722;-79
2021/03/21 07:30:26;;;;;;;20.43;10.60;;;;;;;-0.73;62.07;99544.19;124519;1109;104283;-79
2021/03/21 07:32:59;;;;;;;20.40;10.70;;;;;;;-0.71;63.01;99534.83;124717;1106;104037;-79
2021/03/21 07:35:48;;;;;;;18.57;10.77;;;;;;;-0.71;62.09;99529.72;124687;1105;104027;-79
2021/03/21 07:38:44;;;;;;;18.60;11.40;;;;;;;-0.68;63.14;99511.79;124586;1105;104108;-79
2021/03/21 07:41:28;;;;;;;19.60;11.10;;;;;;;-0.71;62.94;99527.16;124537;1105;104114;-78
2021/03/21 07:44:13;;;;;;;22.33;12.80;;;;;;;-0.74;63.60;99524.56;124713;1105;104608;-78
2021/03/21 07:47:11;;;;;;;20.03;12.27;;;;;;;-0.76;64.27;99516.03;124809;1106;104162;-79
2021/03/21 07:49:41;;;;;;;;;;;;;;;-0.81;64.40;99497.25;124624;1106;104136;-79
2021/03/21 07:52:50;;;;;;;20.07;12.73;;;;;;;-0.84;64.59;99502.38;124564;1105;104136;-79
2021/03/21 07:55:34;;;;;;;18.90;10.90;;;;;;;-0.83;65.26;99498.95;124469;1106;104287;-79
2021/03/21 07:58:19;;;;;;;21.07;12.97;;;;;;;-0.84;64.97;99492.13;124528;1106;104111;-79
2021/03/21 08:00:47;;;;;;;22.97;12.63;;;;;;;-0.86;65.84;99501.52;124751;1105;104114;-77
2021/03/21 08:03:49;;;;;;;22.10;13.10;;;;;;;-0.87;65.39;99496.40;124730;1106;104144;-78
2021/03/21 08:06:26;;;;;;;20.40;12.73;;;;;;;-0.88;65.67;99485.30;124497;1106;104178;-79
2021/03/21 08:09:04;;;;;;;25.50;13.45;;;;;;;-0.85;66.00;99498.11;124508;1105;104284;-78
2021/03/21 08:11:36;;;;;;;18.10;11.77;;;;;;;-0.85;65.95;99484.45;124512;1105;104172;-79
2021/03/21 08:14:28;;;;;;;23.43;12.43;;;;;;;-0.89;66.68;99488.72;124496;1105;104198;-78
2021/03/21 08:16:58;;;;;;;21.95;12.45;;;;;;;-0.89;66.23;99477.63;124482;1105;104124;-78
2021/03/21 08:19:30;;;;;;;21.30;13.70;;;;;;;-0.93;66.63;99476.73;124786;1105;104165;-79
2021/03/21 08:21:58;;;;;;;23.07;12.90;;;;;;;-0.93;66.64;99484.42;124612;1109;104190;-79
2021/03/21 08:24:34;;;;;;;16.93;11.57;;;;;;;-0.95;66.86;99494.66;124486;1105;104002;-79
2021/03/21 08:27:19;;;;;;;19.70;13.00;;;;;;;-0.97;66.49;99475.89;124532;1105;103948;-79
2021/03/21 08:29:58;;;;;;;25.27;14.17;;;;;;;-0.99;66.41;99466.50;124524;1106;104156;-77
2021/03/21 08:32:27;;;;;;;26.67;13.93;;;;;;;-0.96;66.39;99480.16;124600;1105;101645;-78
2021/03/21 08:35:11;;;;;;;21.07;13.03;;;;;;;-0.96;66.68;99486.98;124546;1106;104709;-78
2021/03/21 08:37:50;;;;;;;22.03;13.53;;;;;;;-0.97;66.70;99480.16;124537;1106;104280;-79
2021/03/21 08:40:38;;;;;;;24.67;14.70;;;;;;;-0.95;66.28;99468.20;124546;1106;104336;-78
2021/03/21 08:43:23;;;;;;;21.83;13.80;;;;;;;-0.91;66.74;99469.91;124550;1105;104147;-79
2021/03/21 08:46:17;;;;;;;21.90;14.40;;;;;;;-0.86;67.22;99469.95;124516;1109;104217;-78
2021/03/21 08:48:45;;;;;;;25.60;14.03;;;;;;;-0.84;67.09;99470.80;124557;1105;101904;-79
2021/03/21 08:51:12;;;;;;;22.57;14.77;;;;;;;-0.85;66.67;99469.95;124538;1105;104104;-78
2021/03/21 08:54:02;;;;;;;24.55;14.05;;;;;;;-0.85;67.26;99469.09;124567;1105;104207;-78
2021/03/21 08:56:37;;;;;;;21.03;14.60;;;;;;;-0.87;67.77;99481.89;124566;1106;104281;-78
2021/03/21 08:59:12;;;;;;;22.60;14.03;;;;;;;-0.89;67.17;99470.80;124553;1106;104220;-78
2021/03/21 09:01:40;;;;;;;21.47;14.00;;;;;;;-0.88;67.23;99463.98;124648;1105;104233;-78
2021/03/21 09:04:09;;;;;;;23.80;15.67;;;;;;;-0.87;67.53;99466.53;124818;1105;104168;-78
2021/03/21 09:06:40;;;;;;;23.80;15.30;;;;;;;-0.85;67.58;99463.97;124561;1105;104306;-78
2021/03/21 09:09:17;;;;;;;23.80;14.83;;;;;;;-0.82;67.16;99452.02;124540;1105;105414;-78
2021/03/21 09:11:47;;;;;;;23.23;14.83;;;;;;;-0.77;67.00;99455.44;124742;1105;104126;-78
2021/03/21 09:14:28;;;;;;;24.73;15.80;;;;;;;-0.73;67.87;99457.13;124740;1105;104287;-78
2021/03/21 09:17:05;;;;;;;25.13;15.07;;;;;;;-0.66;67.47;99455.45;124500;1106;104118;-79
2021/03/21 09:19:37;;;;;;;25.10;15.03;;;;;;;-0.62;67.50;99447.77;124549;1109;104252;-78
2021/03/21 09:22:27;;;;;;;23.20;15.27;;;;;;;-0.61;67.08;99449.47;124562;1106;104114;-79
2021/03/21 09:25:15;;;;;;;25.85;16.40;;;;;;;-0.58;67.63;99447.75;124511;1106;104878;-78
2021/03/21 09:27:43;;;;;;;20.77;14.50;;;;;;;-0.55;67.09;99452.87;124535;1106;104161;-78
2021/03/21 09:30:37;;;;;;;21.83;15.00;;;;;;;-0.53;67.57;99446.07;124543;1105;104645;-78
2021/03/21 09:33:10;;;;;;;23.13;15.43;;;;;;;-0.49;68.10;99447.77;124542;1105;104277;-77
2021/03/21 09:35:54;;;;;;;29.10;17.93;;;;;;;-0.43;67.98;99450.31;124591;1104;104280;-78
2021/03/21 09:38:24;;;;;;;24.60;16.30;;;;;;;-0.42;67.73;99449.46;124545;1105;104172;-78
2021/03/21 09:40:58;;;;;;;26.77;16.10;;;;;;;-0.42;67.94;99446.90;124589;1105;104197;-78
2021/03/21 09:43:32;;;;;;;26.60;17.37;;;;;;;-0.42;67.74;99444.34;124528;1105;104638;-80
2021/03/21 09:46:05;;;;;;;23.60;15.87;;;;;;;-0.41;67.99;99452.02;124526;1105;104201;-77
2021/03/21 09:48:51;;;;;;;28.93;18.10;;;;;;;-0.39;67.82;99441.77;124676;1106;104239;-78
2021/03/21 09:51:34;;;;;;;27.27;17.07;;;;;;;-0.34;67.76;99442.64;124683;1105;104265;-77
2021/03/21 09:54:46;;;;;;;28.33;17.67;;;;;;;-0.29;67.96;99425.55;124482;1109;104108;-78
2021/03/21 09:57:13;;;;;;;29.63;17.97;;;;;;;-0.24;68.25;99431.50;124144;1108;104280;-78
2021/03/21 09:59:55;;;;;;;26.33;19.12;;;;;;;-0.20;68.44;99440.89;124433;1108;104254;-78
2021/03/21 10:02:28;;;;;;;29.60;18.83;;;;;;;-0.16;68.88;99431.51;124196;1109;104255;-79
2021/03/21 10:05:10;;;;;;;24.97;16.60;;;;;;;-0.17;68.62;99427.23;124196;1112;104582;-78
2021/03/21 10:07:46;;;;;;;26.90;18.10;;;;;;;-0.15;68.91;99422.96;124174;1109;102834;-79
2021/03/21 10:10:28;;;;;;;25.15;16.60;;;;;;;-0.14;68.62;99415.27;124191;1111;103989;-78
2021/03/21 10:12:56;;;;;;;29.00;19.53;;;;;;;-0.17;68.64;99417.84;124235;1109;104271;-78
2021/03/21 10:15:27;;;;;;;27.10;19.17;;;;;;;-0.13;68.62;99418.68;124210;1109;104133;-78
2021/03/21 10:17:59;;;;;;;27.90;18.70;;;;;;;-0.08;69.23;99425.49;124258;1109;104223;-78
2021/03/21 10:20:51;;;;;;;30.73;18.53;;;;;;;-0.07;68.33;99418.66;124288;1109;104304;-78
2021/03/21 10:23:19;;;;;;;29.07;18.93;;;;;;;-0.08;68.55;99417.80;124426;1109;104245;-78
2021/03/21 10:25:46;;;;;;;26.50;16.87;;;;;;;-0.13;69.69;99416.97;124235;1109;104389;-78
2021/03/21 10:28:38;;;;;;;27.23;19.27;;;;;;;-0.17;69.19;99414.42;124541;1106;104753;-78
2021/03/21 10:31:21;;;;;;;29.27;19.03;;;;;;;-0.20;69.38;99415.26;124536;1106;104233;-78
2021/03/21 10:33:51;;;;;;;31.60;21.53;;;;;;;-0.22;69.95;99411.85;124747;1105;104320;-78
2021/03/21 10:36:37;;;;;;;28.10;18.70;;;;;;;-0.24;70.23;99403.31;124530;1105;103922;-78
2021/03/21 10:39:24;;;;;;;30.73;19.87;;;;;;;-0.22;70.12;99401.59;124775;1106;104198;-78
2021/03/21 10:42:01;;;;;;;33.17;20.10;;;;;;;-0.18;70.19;99405.00;124296;1109;104297;-78
2021/03/21 10:44:31;;;;;;;28.10;18.60;;;;;;;-0.12;70.01;99399.88;124279;1112;104294;-78
2021/03/21 10:47:05;;;;;;;28.13;18.40;;;;;;;-0.12;70.28;99407.57;124366;1109;104202;-79
2021/03/21 10:50:14;;;;;;;33.97;20.70;;;;;;;-0.12;69.62;99407.57;124213;1109;104128;-79
2021/03/21 10:52:47;;;;;;;32.90;21.13;;;;;;;-0.06;69.61;99403.27;124163;1109;101804;-79
2021/03/21 10:55:14;;;;;;;28.47;18.80;;;;;;;0.02;69.66;99404.98;124335;1109;104185;-78
2021/03/21 10:57:44;;;;;;;24.40;17.97;;;;;;;0.05;69.25;99398.13;124499;1109;104194;-79
2021/03/21 11:00:14;;;;;;;31.30;19.33;;;;;;;0.11;69.50;99392.96;124470;1109;104306;-78
2021/03/21 11:02:50;;;;;;;30.77;20.67;;;;;;;0.17;69.33;99392.92;124241;1109;104188;-79
2021/03/21 11:05:29;;;;;;;29.70;21.43;;;;;;;0.22;69.12;99387.80;124295;1109;104846;-79
2021/03/21 11:08:18;;;;;;;34.90;22.10;;;;;;;0.30;69.36;99389.46;124261;1109;101842;-78
2021/03/21 11:10:51;;;;;;;33.03;20.03;;;;;;;0.34;69.35;99377.47;124046;1109;104297;-79
2021/03/21 11:13:34;;;;;;;29.77;21.60;;;;;;;0.37;69.56;99366.38;124169;1112;103025;-79
2021/03/21 11:16:31;;;;;;;26.40;17.43;;;;;;;0.36;69.10;99362.95;124122;1112;104197;-78
2021/03/21 11:19:04;;;;;;;33.33;21.53;;;;;;;0.41;69.18;99366.34;124291;1106;104117;-79
2021/03/21 11:21:46;;;;;;;33.20;22.00;;;;;;;0.52;69.34;99356.84;124506;1105;104220;-79
2021/03/21 11:24:33;;;;;;;32.30;21.23;;;;;;;0.60;69.23;99355.11;124550;1109;101679;-79
2021/03/21 11:27:04;;;;;;;36.63;23.22;;;;;;;0.66;68.60;99354.20;124506;1105;102542;-79
2021/03/21 11:29:36;;;;;;;31.73;20.77;;;;;;;0.69;68.88;99348.20;124511;1105;105632;-79
2021/03/21 11:32:17;;;;;;;33.30;21.80;;;;;;;0.71;68.81;99357.58;124470;1105;104169;-79
2021/03/21 11:34:59;;;;;;;29.90;20.50;;;;;;;0.71;68.71;99349.89;124698;1105;104592;-79
2021/03/21 11:37:35;;;;;;;30.97;18.63;;;;;;;0.77;68.76;99346.45;124592;1106;104197;-79
2021/03/21 11:40:29;;;;;;;27.70;19.70;;;;;;;0.68;69.61;99336.23;124542;1109;102324;-79
2021/03/21 11:43:21;;;;;;;31.53;20.20;;;;;;;0.66;69.02;99353.35;124428;1106;103322;-79
2021/03/21 11:45:50;;;;;;;30.13;21.50;;;;;;;0.72;68.85;99341.36;124770;1106;104130;-79
2021/03/21 11:48:20;;;;;;;24.97;18.43;;;;;;;0.79;68.71;99342.15;124503;1105;104088;-79
2021/03/21 11:50:52;;;;;;;29.30;19.97;;;;;;;0.80;68.66;99336.16;124752;1106;104290;-77
2021/03/21 11:53:37;;;;;;;30.93;19.77;;;;;;;0.81;68.77;99332.72;124470;1106;103466;-79
2021/03/21 11:56:16;;;;;;;24.90;17.70;;;;;;;0.84;68.47;99335.26;124519;1106;104239;-78
2021/03/21 11:58:49;;;;;;;27.27;19.27;;;;;;;0.86;68.71;99326.68;124473;1106;104089;-78